Time;durP1;ratioP1;P1;durP2;ratioP2;P2;SDS_P1;SDS_P2;PMS_P1;PMS_P2;Temp;Humidity;BMP_temperature;BMP_pressure;BME280_temperature;BME280_humidity;BME280_pressure;Samples;Min_cycle;Max_cycle;Signal;HPM_P1;HPM_P2
2021/06/18 00:02:02;;;;;;;18.60;10.27;;;;;;;21.72;60.52;100582.41;4888788;28;109804;-72
2021/06/18 00:04:28;;;;;;;18.15;9.52;;;;;;;21.91;59.97;100573.66;4904545;28;98532;-72
2021/06/18 00:06:54;;;;;;;26.52;10.18;;;;;;;21.98;59.57;100581.34;4916615;28;126925;-72
2021/06/18 00:09:20;;;;;;;27.25;10.65;;;;;;;21.84;59.63;100575.34;4939985;28;98225;-72
2021/06/18 00:11:47;;;;;;;26.02;9.75;;;;;;;21.86;59.50;100575.81;4942382;28;118804;-72
2021/06/18 00:14:13;;;;;;;17.50;9.35;;;;;;;21.87;59.14;100582.91;4941508;28;126421;-72
2021/06/18 00:16:39;;;;;;;13.00;8.75;;;;;;;21.72;59.82;100592.59;4941428;28;127824;-72
2021/06/18 00:19:05;;;;;;;13.20;8.88;;;;;;;21.88;59.27;100590.78;4936306;28;127231;-71
2021/06/18 00:21:31;;;;;;;16.17;8.80;;;;;;;21.92;59.35;100585.44;4922228;28;117360;-72
2021/06/18 00:23:57;;;;;;;12.07;8.43;;;;;;;21.74;59.93;100593.88;4921976;28;112442;-72
2021/06/18 00:26:23;;;;;;;16.52;9.30;;;;;;;21.85;59.66;100585.19;4903893;28;129413;-72
2021/06/18 00:28:50;;;;;;;16.98;9.05;;;;;;;21.80;60.10;100592.50;4904075;28;126291;-72
2021/06/18 00:31:16;;;;;;;15.80;9.50;;;;;;;21.66;60.03;100596.69;4904944;28;97952;-72
2021/06/18 00:33:42;;;;;;;17.67;9.50;;;;;;;21.46;60.57;100587.38;4935880;28;98603;-72
2021/06/18 00:36:08;;;;;;;14.50;9.18;;;;;;;21.30;60.95;100585.25;4941473;28;127130;-72
2021/06/18 00:38:34;;;;;;;19.02;9.02;;;;;;;21.18;61.01;100584.38;4939650;28;123002;-72
2021/06/18 00:41:00;;;;;;;22.58;9.95;;;;;;;21.39;60.77;100585.19;4942337;28;97777;-72
2021/06/18 00:43:26;;;;;;;26.45;10.15;;;;;;;21.34;60.55;100585.41;4941998;28;97949;-72
2021/06/18 00:45:52;;;;;;;21.88;9.95;;;;;;;21.54;60.10;100583.75;4906250;28;126543;-71
2021/06/18 00:48:20;;;;;;;16.67;9.30;;;;;;;21.46;59.74;100588.19;4920842;28;99609;-72
2021/06/18 00:50:47;;;;;;;20.17;10.00;;;;;;;21.59;59.57;100578.06;4905351;28;98097;-72
2021/06/18 00:53:13;;;;;;;17.60;9.48;;;;;;;21.33;60.20;100589.25;4919815;28;116962;-72
2021/06/18 00:55:39;;;;;;;14.40;9.13;;;;;;;21.48;60.01;100580.41;4919467;28;126754;-71
2021/06/18 00:58:05;;;;;;;15.90;9.15;;;;;;;21.45;60.31;100580.28;4903218;28;122116;-72
2021/06/18 01:00:31;;;;;;;18.73;9.40;;;;;;;21.49;60.42;100575.72;4903685;28;118575;-72
2021/06/18 01:02:57;;;;;;;10.20;8.95;;;;;;;21.63;59.99;100578.97;4917839;28;107178;-72
2021/06/18 01:05:23;;;;;;;10.60;8.90;;;;;;;21.53;59.83;100582.13;4940274;28;98769;-71
2021/06/18 01:08:06;;;;;;;10.18;8.95;;;;;;;21.51;60.34;100578.94;4942082;28;98653;-72
2021/06/18 01:10:53;;;;;;;11.88;9.32;;;;;;;21.07;61.20;100593.00;4942441;28;97917;-72
2021/06/18 01:14:01;;;;;;;12.00;8.90;;;;;;;21.09;61.19;100579.75;4940120;28;98145;-71
2021/06/18 01:16:34;;;;;;;10.32;9.30;;;;;;;21.04;61.14;100585.47;4922961;28;98591;-72
2021/06/18 01:19:55;;;;;;;10.20;9.00;;;;;;;20.97;61.72;100582.44;4919758;28;98119;-72
2021/06/18 01:22:23;;;;;;;9.93;9.05;;;;;;;20.23;63.65;100583.84;4861166;28;97993;-71
2021/06/18 01:25:36;;;;;;;10.80;9.73;;;;;;;20.22;64.16;100582.25;4914109;28;111051;-71
2021/06/18 01:28:46;;;;;;;9.65;8.65;;;;;;;19.78;64.83;100580.81;4920966;28;98713;-72
2021/06/18 01:31:14;;;;;;;10.82;9.38;;;;;;;19.85;64.79;100586.59;4889413;28;97978;-71
2021/06/18 01:33:43;;;;;;;9.70;8.70;;;;;;;20.21;64.21;100586.13;4903892;28;97911;-72
2021/06/18 01:36:10;;;;;;;10.82;8.70;;;;;;;20.32;63.45;100589.28;4904289;28;98213;-71
2021/06/18 01:38:39;;;;;;;10.40;9.30;;;;;;;20.18;63.86;100583.22;4905028;28;98972;-71
2021/06/18 01:41:05;;;;;;;12.73;9.07;;;;;;;19.92;64.56;100591.53;4941778;28;98300;-71
2021/06/18 01:43:32;;;;;;;11.95;9.27;;;;;;;20.05;64.07;100580.38;4922242;28;98453;-71
2021/06/18 01:45:58;;;;;;;18.73;10.13;;;;;;;19.86;64.49;100580.78;4922594;28;98760;-71
2021/06/18 01:48:24;;;;;;;22.52;10.10;;;;;;;19.77;64.59;100585.47;4907034;28;98814;-71
2021/06/18 01:50:51;;;;;;;24.55;11.23;;;;;;;19.96;64.03;100578.81;4905295;28;125302;-71
2021/06/18 01:53:19;;;;;;;24.10;9.52;;;;;;;19.74;64.75;100577.91;4923100;28;106645;-71
2021/06/18 01:55:45;;;;;;;25.80;10.40;;;;;;;19.95;63.48;100579.94;4938903;28;98481;-72
2021/06/18 01:58:11;;;;;;;19.25;9.65;;;;;;;20.11;63.64;100572.78;4922731;28;98825;-73
2021/06/18 02:00:43;;;;;;;22.83;9.93;;;;;;;19.88;63.84;100580.44;4937987;28;126950;-71
2021/06/18 02:03:12;;;;;;;15.87;9.53;;;;;;;20.07;63.50;100572.63;4941055;28;106382;-71
2021/06/18 02:05:39;;;;;;;16.63;9.02;;;;;;;20.14;63.23;100576.81;4922573;28;115921;-71
2021/06/18 02:08:06;;;;;;;14.48;8.85;;;;;;;20.28;62.27;100575.47;4911944;28;98727;-71
2021/06/18 02:10:34;;;;;;;10.27;8.25;;;;;;;19.83;63.70;100573.22;4902693;28;117181;-71
2021/06/18 02:13:00;;;;;;;12.52;8.93;;;;;;;19.75;64.33;100582.25;4920089;28;98093;-71
2021/06/18 02:15:26;;;;;;;10.32;8.50;;;;;;;19.75;63.63;100578.72;4918141;28;99152;-72
2021/06/18 02:17:52;;;;;;;12.75;8.73;;;;;;;19.73;64.36;100578.22;4901944;28;127640;-71
2021/06/18 02:20:19;;;;;;;10.30;8.43;;;;;;;19.55;63.88;100575.50;4919484;28;98377;-71
2021/06/18 02:22:48;;;;;;;9.43;7.90;;;;;;;19.59;64.41;100576.47;4920105;28;97914;-71
2021/06/18 02:25:15;;;;;;;8.00;7.18;;;;;;;19.51;64.37;100573.75;4921848;28;98924;-71
2021/06/18 02:27:41;;;;;;;8.40;7.60;;;;;;;19.64;63.67;100570.06;4902826;28;98164;-71
2021/06/18 02:30:08;;;;;;;9.95;8.13;;;;;;;19.51;63.98;100565.56;4925800;28;99739;-71
2021/06/18 02:32:34;;;;;;;9.23;7.80;;;;;;;19.35;64.10;100570.72;4924416;28;99884;-71
2021/06/18 02:35:01;;;;;;;8.00;7.25;;;;;;;19.75;63.12;100574.03;4943569;28;98514;-71
2021/06/18 02:37:27;;;;;;;8.82;7.93;;;;;;;19.39;63.36;100582.63;4925250;28;115985;-71
2021/06/18 02:39:53;;;;;;;7.85;7.15;;;;;;;19.56;63.02;100579.06;4923012;28;117945;-71
2021/06/18 02:42:19;;;;;;;7.45;6.80;;;;;;;19.61;63.25;100577.00;4923951;28;118863;-71
2021/06/18 02:44:45;;;;;;;8.50;7.20;;;;;;;19.78;62.61;100578.06;4905612;28;100199;-71
2021/06/18 02:47:32;;;;;;;9.00;6.90;;;;;;;19.83;62.42;100583.34;4905601;28;128034;-71
2021/06/18 02:50:03;;;;;;;8.27;7.47;;;;;;;19.81;62.30;100580.97;4922694;28;98312;-71
2021/06/18 02:52:53;;;;;;;7.88;7.15;;;;;;;19.90;62.18;100588.34;4922669;28;97991;-71
2021/06/18 02:55:29;;;;;;;8.23;7.30;;;;;;;19.66;62.72;100599.81;4908925;28;98723;-71
2021/06/18 02:58:00;;;;;;;9.70;7.22;;;;;;;19.83;62.06;100588.81;4892324;28;98555;-71
2021/06/18 03:00:27;;;;;;;7.53;6.82;;;;;;;19.85;61.93;100589.31;4890408;28;98187;-71
2021/06/18 03:02:59;;;;;;;7.68;6.93;;;;;;;19.82;61.86;100596.22;4921899;28;97824;-71
2021/06/18 03:05:25;;;;;;;;;;;;;;;19.67;61.81;100590.47;4938517;28;98117;-71
2021/06/18 03:07:58;;;;;;;9.18;7.80;;;;;;;19.76;61.43;100594.00;4942480;28;98450;-71
2021/06/18 03:10:26;;;;;;;8.30;7.50;;;;;;;19.79;61.26;100607.81;4909152;28;100142;-71
2021/06/18 03:13:12;;;;;;;9.25;7.32;;;;;;;19.66;62.10;100597.09;4926248;28;97958;-71
2021/06/18 03:15:44;;;;;;;8.23;7.43;;;;;;;19.79;61.16;100604.28;4943557;28;98187;-71
2021/06/18 03:18:10;;;;;;;8.80;7.50;;;;;;;19.89;61.20;100603.16;4943513;28;100516;-72
2021/06/18 03:20:37;;;;;;;8.25;7.45;;;;;;;19.78;61.70;100600.75;4908723;28;101758;-72
2021/06/18 03:23:06;;;;;;;8.63;7.82;;;;;;;19.78;61.97;100613.63;4940365;28;112630;-71
2021/06/18 03:25:35;;;;;;;8.80;7.90;;;;;;;19.61;61.58;100617.16;4925894;28;98178;-71
2021/06/18 03:28:02;;;;;;;10.45;8.05;;;;;;;19.56;62.26;100617.31;4920855;28;99386;-71
2021/06/18 03:30:28;;;;;;;7.45;6.82;;;;;;;19.68;62.42;100614.75;4905688;28;99242;-71
2021/06/18 03:32:55;;;;;;;8.82;7.07;;;;;;;19.47;63.25;100611.06;4915562;28;98488;-71
2021/06/18 03:35:21;;;;;;;8.93;7.18;;;;;;;19.40;63.38;100610.75;4941527;28;99959;-71
2021/06/18 03:37:48;;;;;;;7.18;6.63;;;;;;;19.72;62.76;100614.91;4940456;28;128026;-72
2021/06/18 03:40:14;;;;;;;7.57;6.85;;;;;;;19.68;62.52;100616.69;4924743;28;107137;-72
2021/06/18 03:42:40;;;;;;;10.02;6.95;;;;;;;19.76;62.06;100608.47;4941590;28;97760;-72
2021/06/18 03:45:07;;;;;;;7.72;6.47;;;;;;;20.00;62.09;100610.66;4924308;28;115765;-72
2021/06/18 03:47:33;;;;;;;9.43;7.15;;;;;;;19.81;62.50;100607.50;4925480;28;98902;-71
2021/06/18 03:50:00;;;;;;;7.40;6.60;;;;;;;20.13;61.42;100608.84;4923767;28;125613;-71
2021/06/18 03:52:26;;;;;;;10.10;6.82;;;;;;;20.19;60.98;100610.25;4941733;28;97952;-71
2021/06/18 03:54:52;;;;;;;6.85;6.22;;;;;;;20.38;60.53;100611.78;4940069;28;126743;-71
2021/06/18 03:57:18;;;;;;;9.00;7.18;;;;;;;20.40;60.15;100609.53;4940518;28;113859;-71
2021/06/18 03:59:45;;;;;;;8.55;7.25;;;;;;;20.61;60.04;100612.34;4924683;28;98227;-71
2021/06/18 04:02:13;;;;;;;9.85;7.45;;;;;;;20.64;60.17;100622.66;4924030;28;98068;-71
2021/06/18 04:04:39;;;;;;;8.88;7.70;;;;;;;20.68;59.50;100621.66;4922121;28;116700;-71
2021/06/18 04:07:06;;;;;;;8.40;6.70;;;;;;;20.71;59.25;100620.16;4904247;28;128083;-71
2021/06/18 04:09:32;;;;;;;7.85;7.15;;;;;;;20.65;59.27;100618.78;4923096;28;97688;-72
2021/06/18 04:12:02;;;;;;;7.32;6.63;;;;;;;20.76;59.06;100609.03;4920504;28;117215;-72
2021/06/18 04:14:28;;;;;;;8.32;6.82;;;;;;;20.88;58.81;100608.31;4920026;28;116393;-72
2021/06/18 04:16:54;;;;;;;8.52;7.10;;;;;;;20.84;58.93;100605.44;4904633;28;98760;-71
2021/06/18 04:19:20;;;;;;;8.00;7.20;;;;;;;20.96;59.07;100607.44;4903365;28;127531;-71
2021/06/18 04:21:46;;;;;;;20.40;8.23;;;;;;;21.03;58.73;100604.97;4905153;28;100553;-71
2021/06/18 04:24:13;;;;;;;9.60;8.05;;;;;;;21.05;58.95;100608.97;4904636;28;98971;-71
2021/06/18 04:26:40;;;;;;;8.30;7.50;;;;;;;20.97;58.82;100609.03;4922520;28;98435;-73
2021/06/18 04:29:06;;;;;;;8.60;7.68;;;;;;;21.26;58.68;100608.16;4922375;28;106318;-71
2021/06/18 04:31:32;;;;;;;7.95;7.15;;;;;;;21.30;58.52;100611.84;4935406;28;97641;-73
2021/06/18 04:33:58;;;;;;;7.45;6.75;;;;;;;21.45;57.79;100619.47;4936755;28;98366;-73
2021/06/18 04:36:24;;;;;;;9.32;7.40;;;;;;;21.53;58.03;100621.31;4938570;28;128922;-71
2021/06/18 04:38:50;;;;;;;7.50;6.57;;;;;;;21.65;57.68;100623.31;4900137;28;126516;-73
2021/06/18 04:41:17;;;;;;;7.35;6.65;;;;;;;21.55;57.25;100621.00;4932732;28;106072;-71
2021/06/18 04:43:43;;;;;;;8.07;5.88;;;;;;;21.79;56.88;100623.81;4938643;28;98275;-71
2021/06/18 04:46:09;;;;;;;7.95;5.63;;;;;;;21.90;56.08;100617.91;4919821;28;127793;-71
2021/06/18 04:48:35;;;;;;;8.05;5.53;;;;;;;21.99;54.81;100624.09;4938529;28;127227;-73
2021/06/18 04:51:02;;;;;;;5.03;4.53;;;;;;;21.96;54.43;100633.00;4938788;28;98264;-71
2021/06/18 04:53:28;;;;;;;6.68;5.00;;;;;;;22.00;54.08;100625.69;4920067;28;98328;-71
2021/06/18 04:55:54;;;;;;;5.85;4.65;;;;;;;22.22;53.96;100622.53;4919593;28;107515;-71
2021/06/18 04:58:20;;;;;;;7.65;4.47;;;;;;;22.39;53.29;100617.97;4916322;28;127775;-73
2021/06/18 05:00:46;;;;;;;4.82;4.43;;;;;;;22.59;53.17;100619.78;4934424;28;98027;-74
2021/06/18 05:03:12;;;;;;;6.15;4.38;;;;;;;22.73;51.15;100624.94;4937713;28;127095;-73
2021/06/18 05:05:38;;;;;;;4.68;4.22;;;;;;;22.90;50.65;100621.13;4939089;28;98318;-71
2021/06/18 05:08:04;;;;;;;5.18;4.10;;;;;;;22.99;51.01;100627.31;4936438;28;121193;-74
2021/06/18 05:10:30;;;;;;;6.65;3.70;;;;;;;23.17;49.54;100623.16;4938739;28;97911;-74
2021/06/18 05:12:56;;;;;;;8.23;4.10;;;;;;;23.36;49.12;100619.75;4940140;28;98559;-74
2021/06/18 05:15:22;;;;;;;4.20;3.80;;;;;;;23.47;48.89;100626.38;4940077;28;128840;-74
2021/06/18 05:17:48;;;;;;;7.35;4.03;;;;;;;23.70;48.85;100623.88;4923190;28;98170;-71
2021/06/18 05:20:15;;;;;;;6.45;4.03;;;;;;;23.59;47.82;100625.50;4939802;28;98049;-71
2021/06/18 05:22:41;;;;;;;4.88;4.20;;;;;;;23.62;47.89;100622.06;4914632;28;100657;-73
2021/06/18 05:25:08;;;;;;;4.97;3.83;;;;;;;23.81;47.44;100626.09;4904165;28;99004;-73
2021/06/18 05:27:34;;;;;;;4.82;3.67;;;;;;;24.12;47.01;100617.88;4921267;28;98872;-71
2021/06/18 05:30:00;;;;;;;4.78;4.00;;;;;;;24.34;46.65;100621.16;4904395;28;109789;-71
2021/06/18 05:32:26;;;;;;;4.40;3.65;;;;;;;24.47;46.77;100619.94;4939290;28;121170;-71
2021/06/18 05:34:52;;;;;;;4.68;3.80;;;;;;;24.84;45.84;100620.41;4922969;28;98763;-73
2021/06/18 05:37:18;;;;;;;4.82;3.50;;;;;;;24.97;45.44;100624.63;4921041;28;98105;-71
2021/06/18 05:39:44;;;;;;;3.97;3.30;;;;;;;25.21;44.14;100628.28;4920775;28;118032;-71
2021/06/18 05:42:11;;;;;;;4.40;3.13;;;;;;;25.03;44.56;100630.63;4902223;28;129007;-73
2021/06/18 05:44:37;;;;;;;4.63;3.40;;;;;;;25.38;43.11;100636.13;4918958;28;120182;-71
2021/06/18 05:47:03;;;;;;;4.78;3.38;;;;;;;25.77;41.71;100636.09;4902472;28;127679;-71
2021/06/18 05:49:29;;;;;;;3.88;3.08;;;;;;;26.35;41.28;100637.91;4920708;28;98025;-74
2021/06/18 05:51:55;;;;;;;3.47;2.80;;;;;;;26.99;39.58;100627.81;4921496;28;98794;-74
2021/06/18 05:54:21;;;;;;;4.30;3.20;;;;;;;27.57;37.89;100632.09;4918578;28;127690;-71
2021/06/18 05:56:47;;;;;;;4.25;3.00;;;;;;;28.35;37.03;100641.19;4902695;28;127466;-71
2021/06/18 05:59:13;;;;;;;4.43;3.00;;;;;;;30.49;32.45;100632.88;4920449;28;118011;-72
2021/06/18 06:01:39;;;;;;;4.53;3.10;;;;;;;31.97;29.84;100640.28;4920523;28;127966;-72
2021/06/18 06:04:05;;;;;;;4.05;2.83;;;;;;;32.52;29.32;100638.63;4901952;28;128166;-73
2021/06/18 06:06:32;;;;;;;4.10;3.00;;;;;;;33.46;27.35;100633.59;4930607;28;121192;-72
2021/06/18 06:08:58;;;;;;;3.90;2.80;;;;;;;33.75;27.01;100631.19;4943691;28;97721;-73
2021/06/18 06:11:26;;;;;;;3.13;2.83;;;;;;;32.96;28.11;100625.84;4921635;28;98153;-73
2021/06/18 06:13:59;;;;;;;3.30;2.90;;;;;;;33.53;27.49;100618.75;4908579;28;98860;-72
2021/06/18 06:16:25;;;;;;;2.75;2.55;;;;;;;36.07;24.44;100625.88;4909798;28;98042;-74
2021/06/18 06:18:51;;;;;;;4.07;2.65;;;;;;;33.65;27.72;100629.34;4889751;28;115878;-73
2021/06/18 06:21:18;;;;;;;4.32;2.58;;;;;;;34.60;25.76;100619.84;4906572;28;117960;-73
2021/06/18 06:23:44;;;;;;;3.25;2.55;;;;;;;36.57;24.29;100619.78;4908033;28;100136;-73
2021/06/18 06:26:10;;;;;;;3.33;2.42;;;;;;;36.11;24.51;100620.97;4923473;28;101971;-73
2021/06/18 06:28:37;;;;;;;3.28;2.40;;;;;;;37.22;23.29;100618.78;4943703;28;115236;-73
2021/06/18 06:31:06;;;;;;;3.17;2.63;;;;;;;37.06;22.74;100622.47;4939372;28;128450;-74
2021/06/18 06:33:32;;;;;;;4.50;2.40;;;;;;;37.45;22.67;100623.31;4922735;28;128670;-72
2021/06/18 06:35:58;;;;;;;4.85;2.65;;;;;;;35.83;25.70;100612.03;4924035;28;115976;-72
2021/06/18 06:38:24;;;;;;;5.40;2.90;;;;;;;35.29;28.89;100611.66;4943697;28;117862;-80
2021/06/18 06:40:50;;;;;;;4.53;2.70;;;;;;;31.79;31.48;100611.72;4924356;28;126589;-75
2021/06/18 06:43:16;;;;;;;5.88;2.78;;;;;;;31.43;32.71;100592.44;4922286;28;100716;-76
2021/06/18 06:45:43;;;;;;;6.18;3.00;;;;;;;30.22;35.33;100606.69;4929227;28;103549;-77
2021/06/18 06:48:09;;;;;;;3.72;2.75;;;;;;;30.47;36.19;100606.66;4926276;28;97879;-76
2021/06/18 06:50:35;;;;;;;2.90;2.60;;;;;;;30.84;34.12;100602.63;4941492;28;99262;-77
2021/06/18 06:53:01;;;;;;;4.88;2.90;;;;;;;29.45;35.91;100609.72;4925421;28;98564;-78
2021/06/18 06:55:27;;;;;;;6.18;3.25;;;;;;;30.14;35.91;100602.28;4943517;28;98723;-78
2021/06/18 06:57:53;;;;;;;4.88;2.90;;;;;;;30.63;35.13;100615.38;4939246;28;117917;-79
2021/06/18 07:00:20;;;;;;;4.47;3.00;;;;;;;31.21;33.41;100610.44;4905908;28;101014;-76
2021/06/18 07:02:46;;;;;;;5.90;2.90;;;;;;;31.15;34.18;100612.84;4920951;28;107367;-74
2021/06/18 07:05:13;;;;;;;3.53;2.70;;;;;;;31.34;32.55;100606.03;4903838;28;123636;-73
2021/06/18 07:07:39;;;;;;;4.15;2.80;;;;;;;31.83;31.14;100604.13;4933518;28;98027;-74
2021/06/18 07:10:06;;;;;;;3.17;2.80;;;;;;;31.79;34.68;100617.28;4904025;28;128481;-79
2021/06/18 07:12:33;;;;;;;5.30;2.58;;;;;;;32.07;30.44;100615.50;4929564;28;104489;-79
2021/06/18 07:14:59;;;;;;;5.15;2.60;;;;;;;30.93;32.00;100611.34;4924529;28;97926;-81
2021/06/18 07:17:25;;;;;;;3.22;2.58;;;;;;;31.46;32.05;100608.34;4927269;28;99185;-82
2021/06/18 07:19:52;;;;;;;6.53;2.80;;;;;;;31.08;31.25;100598.16;4942040;28;98825;-74
2021/06/18 07:22:20;;;;;;;3.13;2.40;;;;;;;31.09;31.54;100613.66;4929768;28;98777;-73
2021/06/18 07:24:47;;;;;;;4.55;2.78;;;;;;;31.25;32.04;100600.09;4926945;28;98310;-73
2021/06/18 07:27:14;;;;;;;5.63;2.60;;;;;;;31.93;30.59;100602.50;4921695;28;97844;-81
2021/06/18 07:29:41;;;;;;;6.13;2.47;;;;;;;31.88;30.14;100609.28;4904543;28;98295;-80
2021/06/18 07:32:08;;;;;;;4.00;2.30;;;;;;;31.60;29.41;100601.91;4929403;28;98622;-73
2021/06/18 07:34:34;;;;;;;4.05;2.40;;;;;;;31.57;29.11;100599.94;4922467;28;98054;-74
2021/06/18 07:37:00;;;;;;;4.15;2.30;;;;;;;31.35;30.24;100595.69;4921864;28;118446;-77
2021/06/18 07:39:26;;;;;;;3.78;2.42;;;;;;;31.22;30.37;100609.25;4921543;28;127500;-72
2021/06/18 07:41:52;;;;;;;5.15;2.60;;;;;;;32.45;28.88;100605.25;4903419;28;128070;-73
2021/06/18 07:44:18;;;;;;;4.88;2.60;;;;;;;32.51;28.28;100598.03;4921734;28;105184;-72
2021/06/18 07:46:44;;;;;;;3.47;2.42;;;;;;;32.28;27.91;100593.03;4920714;28;97815;-79
2021/06/18 07:49:10;;;;;;;5.45;2.30;;;;;;;31.98;27.14;100596.47;4918066;28;129078;-83
2021/06/18 07:51:37;;;;;;;3.58;2.40;;;;;;;32.37;27.13;100590.53;4919578;28;128082;-78
2021/06/18 07:54:03;;;;;;;3.58;2.40;;;;;;;32.69;27.01;100592.22;4890380;28;97992;-83
2021/06/18 07:56:32;;;;;;;3.83;2.25;;;;;;;33.75;26.26;100596.88;4908780;28;97936;-84
2021/06/18 07:58:58;;;;;;;3.35;2.30;;;;;;;34.31;24.18;100597.16;4907634;28;98918;-81
2021/06/18 08:01:24;;;;;;;4.25;2.00;;;;;;;33.63;25.49;100595.44;4908295;28;98667;-86
2021/06/18 08:03:51;;;;;;;4.68;2.20;;;;;;;34.52;24.33;100585.59;4925442;28;104739;-81
2021/06/18 08:06:17;;;;;;;3.95;2.20;;;;;;;34.40;24.67;100595.38;4901056;28;98004;-85
2021/06/18 08:08:44;;;;;;;4.18;2.35;;;;;;;34.81;24.37;100579.44;4889178;28;100232;-79
2021/06/18 08:11:10;;;;;;;5.88;2.30;;;;;;;35.74;23.10;100577.44;4874947;28;100013;-82
2021/06/18 08:13:36;;;;;;;3.95;2.03;;;;;;;35.86;22.75;100569.09;4923549;28;114561;-84
2021/06/18 08:16:04;;;;;;;3.95;2.20;;;;;;;35.75;22.39;100582.59;4910011;28;98205;-84
2021/06/18 08:18:30;;;;;;;3.33;1.95;;;;;;;36.44;21.88;100576.84;4906976;28;99074;-79
2021/06/18 08:20:56;;;;;;;3.35;2.08;;;;;;;37.20;21.41;100581.13;4923807;28;98001;-83
2021/06/18 08:23:22;;;;;;;2.92;2.13;;;;;;;35.72;22.33;100577.06;4915505;28;99208;-81
2021/06/18 08:25:50;;;;;;;3.97;1.95;;;;;;;35.30;22.38;100576.84;4893074;28;98556;-82
2021/06/18 08:28:16;;;;;;;4.22;2.00;;;;;;;36.24;21.38;100567.78;4908656;28;101952;-85
2021/06/18 08:30:42;;;;;;;3.53;1.90;;;;;;;36.36;20.65;100569.84;4889796;28;99528;-83
2021/06/18 08:33:08;;;;;;;6.78;1.90;;;;;;;35.59;22.21;100562.97;4922510;28;98176;-80
2021/06/18 08:35:34;;;;;;;5.10;2.00;;;;;;;35.28;21.91;100565.25;4890298;28;98211;-80
2021/06/18 08:38:02;;;;;;;4.15;1.80;;;;;;;35.38;21.31;100567.81;4888387;28;127315;-77
2021/06/18 08:40:30;;;;;;;4.20;2.05;;;;;;;35.54;21.17;100563.50;4906183;28;99943;-85
2021/06/18 08:42:56;;;;;;;2.88;2.05;;;;;;;34.33;22.41;100563.97;4875539;28;99126;-77
2021/06/18 08:45:22;;;;;;;3.38;2.10;;;;;;;35.34;21.94;100552.34;4920777;28;116145;-85
2021/06/18 08:47:51;;;;;;;5.38;1.90;;;;;;;35.50;21.77;100543.19;4904197;28;126816;-81
2021/06/18 08:50:24;;;;;;;3.40;2.00;;;;;;;35.86;21.04;100552.28;4904606;28;98404;-76
2021/06/18 08:52:52;;;;;;;5.60;2.15;;;;;;;36.47;20.64;100566.75;4923894;28;97996;-83
2021/06/18 08:55:20;;;;;;;3.97;2.20;;;;;;;36.11;21.15;100560.06;4921841;28;98276;-76
2021/06/18 08:57:50;;;;;;;6.20;2.10;;;;;;;35.44;22.02;100542.09;4922393;28;97733;-84
2021/06/18 09:00:19;;;;;;;5.07;2.00;;;;;;;35.83;21.70;100549.56;4905554;28;99063;-91
2021/06/18 09:02:45;;;;;;;4.57;2.05;;;;;;;35.37;21.99;100548.63;4904028;28;99531;-84
2021/06/18 09:05:13;;;;;;;2.05;1.85;;;;;;;35.74;22.15;100544.59;4908416;28;98087;-78
2021/06/18 09:08:03;;;;;;;4.80;1.92;;;;;;;36.50;20.46;100557.47;4924132;28;98665;-85
2021/06/18 09:10:40;;;;;;;3.38;1.90;;;;;;;37.14;19.63;100568.88;4926241;28;98474;-77
2021/06/18 09:13:15;;;;;;;4.47;2.03;;;;;;;35.53;21.95;100547.91;4921050;28;98326;-76
2021/06/18 09:16:02;;;;;;;3.67;2.00;;;;;;;34.87;22.31;100547.72;4942531;28;97834;-78
2021/06/18 09:18:41;;;;;;;3.70;1.90;;;;;;;35.98;21.43;100533.22;4939344;28;100582;-77
2021/06/18 09:21:09;;;;;;;6.18;2.42;;;;;;;34.93;22.49;100537.56;4920903;28;100599;-79
2021/06/18 09:23:50;;;;;;;4.53;1.90;;;;;;;34.64;22.63;100543.00;4920101;28;100297;-83
2021/06/18 09:26:23;;;;;;;3.05;2.00;;;;;;;34.37;22.83;100543.09;4907496;28;98158;-84
2021/06/18 09:29:18;;;;;;;3.97;2.10;;;;;;;34.02;22.94;100536.16;4936212;28;98862;-83
2021/06/18 09:32:10;;;;;;;3.70;1.98;;;;;;;34.65;22.50;100538.19;4885681;28;100110;-82
2021/06/18 09:37:25;;;;;;;3.20;2.00;;;;;;;35.51;22.04;100525.16;4928151;28;99768;-82
2021/06/18 09:40:00;;;;;;;2.78;1.95;;;;;;;35.73;21.74;100539.44;4907812;28;100608;-81
2021/06/18 09:42:26;;;;;;;3.92;2.20;;;;;;;36.62;20.48;100526.63;4890606;28;101026;-81
2021/06/18 09:45:11;;;;;;;4.05;2.22;;;;;;;37.09;19.63;100537.28;4905708;28;120793;-79
2021/06/18 09:47:37;;;;;;;3.45;1.88;;;;;;;38.55;18.94;100542.09;4898241;28;98697;-78
2021/06/18 09:50:26;;;;;;;3.85;2.33;;;;;;;36.85;19.75;100536.78;4902944;28;100034;-82
2021/06/18 09:53:31;;;;;;;4.40;2.20;;;;;;;37.85;19.76;100521.66;4887456;28;100094;-80
2021/06/18 09:56:09;;;;;;;4.28;2.28;;;;;;;37.36;19.91;100522.03;4906640;28;98173;-80
2021/06/18 09:58:40;;;;;;;2.67;2.10;;;;;;;36.86;20.48;100520.72;4888647;28;97901;-85
2021/06/18 10:01:27;;;;;;;2.30;1.90;;;;;;;37.50;19.34;100520.81;4903018;28;100625;-82
2021/06/18 10:04:14;;;;;;;4.78;2.17;;;;;;;36.84;19.45;100532.41;4909625;28;98637;-81
2021/06/18 10:06:41;;;;;;;4.00;1.90;;;;;;;35.88;20.26;100529.41;4907546;28;98177;-83
2021/06/18 10:09:14;;;;;;;2.60;2.00;;;;;;;37.37;19.20;100511.56;4905482;28;103466;-83
2021/06/18 10:11:43;;;;;;;3.85;1.90;;;;;;;37.50;17.86;100527.22;4884832;28;102041;-82
2021/06/18 10:14:09;;;;;;;3.53;1.88;;;;;;;35.95;19.62;100515.22;4920270;28;99672;-82
2021/06/18 10:16:35;;;;;;;2.67;1.60;;;;;;;37.68;17.84;100518.19;4901357;28;98109;-82
2021/06/18 10:19:02;;;;;;;2.17;1.85;;;;;;;37.05;19.05;100513.38;4899328;28;116707;-82
2021/06/18 10:22:04;;;;;;;3.45;1.88;;;;;;;37.20;19.61;100502.47;4893246;28;101136;-84
2021/06/18 10:24:37;;;;;;;4.35;1.92;;;;;;;37.30;19.60;100510.56;4912787;28;101624;-82
2021/06/18 10:27:05;;;;;;;2.20;1.88;;;;;;;36.38;20.19;100512.06;4906785;28;97770;-82
2021/06/18 10:29:36;;;;;;;19.23;2.42;;;;;;;36.68;19.07;100512.84;4896182;28;98170;-82
2021/06/18 10:32:38;;;;;;;2.80;1.77;;;;;;;36.98;19.72;100510.78;4903764;28;100425;-85
2021/06/18 10:35:05;;;;;;;3.90;1.80;;;;;;;36.72;19.31;100505.13;4834002;28;100103;-81
2021/06/18 10:37:32;;;;;;;4.78;2.00;;;;;;;37.09;19.72;100500.78;4883734;28;99014;-79
2021/06/18 10:40:10;;;;;;;3.15;1.90;;;;;;;37.44;19.03;100502.94;4902397;28;98032;-80
2021/06/18 10:42:36;;;;;;;2.58;1.83;;;;;;;36.86;19.46;100513.13;4907309;28;99065;-79
2021/06/18 10:45:05;;;;;;;2.60;1.80;;;;;;;37.24;20.03;100491.91;4911648;28;103194;-79
2021/06/18 10:47:32;;;;;;;2.92;1.92;;;;;;;37.02;19.20;100497.41;4903082;28;97874;-80
2021/06/18 10:49:59;;;;;;;2.50;1.90;;;;;;;36.51;21.04;100480.47;4921650;28;97849;-81
2021/06/18 10:52:34;;;;;;;4.60;1.80;;;;;;;36.28;19.99;100487.13;4887169;28;99701;-79
2021/06/18 10:55:00;;;;;;;4.20;1.98;;;;;;;37.11;19.90;100480.69;4921639;28;98555;-81
2021/06/18 10:57:27;;;;;;;3.58;1.77;;;;;;;37.14;19.89;100474.19;4904864;28;125977;-78
2021/06/18 11:00:17;;;;;;;6.40;2.45;;;;;;;36.23;19.81;100480.03;4906723;28;97902;-80
2021/06/18 11:02:44;;;;;;;2.90;2.15;;;;;;;36.19;20.91;100479.34;4908382;28;98676;-78
2021/06/18 11:05:25;;;;;;;4.53;1.95;;;;;;;36.78;20.33;100471.66;4921806;28;98925;-77
2021/06/18 11:07:51;;;;;;;3.60;1.80;;;;;;;35.37;21.31;100470.22;4924310;28;98556;-79
2021/06/18 11:10:30;;;;;;;3.92;1.80;;;;;;;35.70;20.44;100467.44;4889205;28;115933;-78
2021/06/18 11:13:09;;;;;;;3.28;1.75;;;;;;;35.51;21.04;100463.50;4912103;28;128266;-76
2021/06/18 11:15:38;;;;;;;2.67;1.85;;;;;;;35.70;20.19;100462.63;4926865;28;98828;-83
2021/06/18 11:18:19;;;;;;;2.60;1.73;;;;;;;35.03;21.09;100457.41;4926532;28;97969;-78
2021/06/18 11:20:50;;;;;;;2.83;1.67;;;;;;;35.64;19.67;100448.34;4914079;28;97983;-77
2021/06/18 11:23:20;;;;;;;2.90;1.90;;;;;;;36.15;19.43;100464.63;4935696;28;98741;-79
2021/06/18 11:26:13;;;;;;;10.55;2.15;;;;;;;35.35;19.31;100464.28;4905650;28;100474;-78
2021/06/18 11:28:46;;;;;;;3.50;1.63;;;;;;;35.32;19.87;100451.13;4907217;28;98088;-77
2021/06/18 11:31:21;;;;;;;3.75;1.50;;;;;;;35.41;19.88;100459.69;4910149;28;98123;-78
2021/06/18 11:33:58;;;;;;;2.90;1.80;;;;;;;35.35;19.84;100447.47;4889892;28;99031;-78